sensor_id;sensor_type;location;lat;lon;timestamp;P1;durP1;ratioP1;P2;durP2;ratioP2
18806;SDS011;9531;52.030;4.380;2022-12-13T00:01:42;134.10;;;85.47;;
18806;SDS011;9531;52.030;4.380;2022-12-13T00:04:13;141.43;;;89.97;;
18806;SDS011;9531;52.030;4.380;2022-12-13T00:06:42;131.90;;;80.83;;
18806;SDS011;9531;52.030;4.380;2022-12-13T00:09:09;147.27;;;83.10;;
18806;SDS011;9531;52.030;4.380;2022-12-13T00:11:39;129.80;;;78.83;;
18806;SDS011;9531;52.030;4.380;2022-12-13T00:14:06;153.63;;;85.00;;
18806;SDS011;9531;52.030;4.380;2022-12-13T00:16:36;140.47;;;81.90;;
18806;SDS011;9531;52.030;4.380;2022-12-13T00:19:04;146.40;;;84.90;;
18806;SDS011;9531;52.030;4.380;2022-12-13T00:21:33;152.90;;;85.40;;
18806;SDS011;9531;52.030;4.380;2022-12-13T00:24:00;139.67;;;75.73;;
18806;SDS011;9531;52.030;4.380;2022-12-13T00:26:28;150.03;;;73.07;;
18806;SDS011;9531;52.030;4.380;2022-12-13T00:28:58;150.80;;;73.43;;
18806;SDS011;9531;52.030;4.380;2022-12-13T00:31:28;146.43;;;73.83;;
18806;SDS011;9531;52.030;4.380;2022-12-13T00:33:56;147.00;;;77.17;;
18806;SDS011;9531;52.030;4.380;2022-12-13T00:36:24;140.10;;;74.93;;
18806;SDS011;9531;52.030;4.380;2022-12-13T00:38:53;143.70;;;72.33;;
18806;SDS011;9531;52.030;4.380;2022-12-13T00:41:27;141.03;;;74.13;;
18806;SDS011;9531;52.030;4.380;2022-12-13T00:43:58;150.60;;;75.67;;
18806;SDS011;9531;52.030;4.380;2022-12-13T00:46:27;158.77;;;80.03;;
18806;SDS011;9531;52.030;4.380;2022-12-13T00:48:55;147.30;;;77.67;;
18806;SDS011;9531;52.030;4.380;2022-12-13T00:51:28;163.43;;;80.67;;
18806;SDS011;9531;52.030;4.380;2022-12-13T00:53:59;155.67;;;80.37;;
18806;SDS011;9531;52.030;4.380;2022-12-13T00:56:29;173.50;;;84.27;;
18806;SDS011;9531;52.030;4.380;2022-12-13T00:58:58;158.43;;;83.33;;
18806;SDS011;9531;52.030;4.380;2022-12-13T01:03:57;175.73;;;82.90;;
18806;SDS011;9531;52.030;4.380;2022-12-13T01:06:27;301.80;;;106.33;;
18806;SDS011;9531;52.030;4.380;2022-12-13T01:09:00;307.10;;;101.57;;
18806;SDS011;9531;52.030;4.380;2022-12-13T01:11:28;304.23;;;101.60;;
18806;SDS011;9531;52.030;4.380;2022-12-13T01:13:56;298.73;;;102.10;;
18806;SDS011;9531;52.030;4.380;2022-12-13T01:16:28;295.30;;;101.77;;
18806;SDS011;9531;52.030;4.380;2022-12-13T01:18:55;323.43;;;105.93;;
18806;SDS011;9531;52.030;4.380;2022-12-13T01:21:23;301.93;;;108.40;;
18806;SDS011;9531;52.030;4.380;2022-12-13T01:23:50;260.97;;;102.07;;
18806;SDS011;9531;52.030;4.380;2022-12-13T01:26:19;315.30;;;106.30;;
18806;SDS011;9531;52.030;4.380;2022-12-13T01:28:52;233.00;;;92.57;;
18806;SDS011;9531;52.030;4.380;2022-12-13T01:31:20;325.97;;;104.30;;
18806;SDS011;9531;52.030;4.380;2022-12-13T01:33:47;246.17;;;95.00;;
18806;SDS011;9531;52.030;4.380;2022-12-13T01:36:16;184.63;;;90.67;;
18806;SDS011;9531;52.030;4.380;2022-12-13T01:38:45;174.40;;;90.73;;
18806;SDS011;9531;52.030;4.380;2022-12-13T01:41:12;177.43;;;87.77;;
18806;SDS011;9531;52.030;4.380;2022-12-13T01:46:27;165.90;;;84.60;;
18806;SDS011;9531;52.030;4.380;2022-12-13T01:48:57;179.43;;;85.27;;
18806;SDS011;9531;52.030;4.380;2022-12-13T01:51:28;165.50;;;83.27;;
18806;SDS011;9531;52.030;4.380;2022-12-13T01:54:02;180.57;;;86.97;;
18806;SDS011;9531;52.030;4.380;2022-12-13T01:56:35;177.00;;;89.53;;
18806;SDS011;9531;52.030;4.380;2022-12-13T01:59:07;181.77;;;88.00;;
18806;SDS011;9531;52.030;4.380;2022-12-13T02:01:36;183.47;;;90.30;;
18806;SDS011;9531;52.030;4.380;2022-12-13T02:04:04;183.30;;;87.73;;
18806;SDS011;9531;52.030;4.380;2022-12-13T02:06:33;195.03;;;86.47;;
18806;SDS011;9531;52.030;4.380;2022-12-13T02:09:03;190.70;;;88.90;;
18806;SDS011;9531;52.030;4.380;2022-12-13T02:11:31;194.67;;;91.70;;
18806;SDS011;9531;52.030;4.380;2022-12-13T02:14:01;205.43;;;92.03;;
18806;SDS011;9531;52.030;4.380;2022-12-13T02:16:36;194.70;;;91.67;;
18806;SDS011;9531;52.030;4.380;2022-12-13T02:19:27;203.63;;;92.77;;
18806;SDS011;9531;52.030;4.380;2022-12-13T02:22:21;206.83;;;89.73;;
18806;SDS011;9531;52.030;4.380;2022-12-13T02:25:05;227.03;;;95.23;;
18806;SDS011;9531;52.030;4.380;2022-12-13T02:27:50;256.93;;;99.30;;
18806;SDS011;9531;52.030;4.380;2022-12-13T02:30:33;258.17;;;102.77;;
18806;SDS011;9531;52.030;4.380;2022-12-13T02:33:10;265.70;;;103.50;;
18806;SDS011;9531;52.030;4.380;2022-12-13T02:35:53;301.70;;;99.90;;
18806;SDS011;9531;52.030;4.380;2022-12-13T02:38:28;371.40;;;111.07;;
18806;SDS011;9531;52.030;4.380;2022-12-13T02:41:03;386.10;;;113.87;;
18806;SDS011;9531;52.030;4.380;2022-12-13T02:43:40;381.60;;;116.33;;
18806;SDS011;9531;52.030;4.380;2022-12-13T02:46:16;371.13;;;115.77;;
18806;SDS011;9531;52.030;4.380;2022-12-13T02:48:46;381.67;;;121.73;;
18806;SDS011;9531;52.030;4.380;2022-12-13T02:51:17;324.87;;;110.50;;
18806;SDS011;9531;52.030;4.380;2022-12-13T02:53:44;360.20;;;111.97;;
18806;SDS011;9531;52.030;4.380;2022-12-13T02:56:12;280.53;;;103.13;;
18806;SDS011;9531;52.030;4.380;2022-12-13T02:58:41;232.83;;;95.07;;
18806;SDS011;9531;52.030;4.380;2022-12-13T03:01:15;217.67;;;92.53;;
18806;SDS011;9531;52.030;4.380;2022-12-13T03:04:00;215.97;;;92.20;;
18806;SDS011;9531;52.030;4.380;2022-12-13T03:06:37;256.23;;;99.23;;
18806;SDS011;9531;52.030;4.380;2022-12-13T03:09:17;243.10;;;97.77;;
18806;SDS011;9531;52.030;4.380;2022-12-13T03:11:56;239.80;;;99.50;;
18806;SDS011;9531;52.030;4.380;2022-12-13T03:14:53;216.57;;;89.37;;
18806;SDS011;9531;52.030;4.380;2022-12-13T03:17:26;260.47;;;97.50;;
18806;SDS011;9531;52.030;4.380;2022-12-13T03:19:56;219.10;;;91.33;;
18806;SDS011;9531;52.030;4.380;2022-12-13T03:22:24;265.27;;;99.50;;
18806;SDS011;9531;52.030;4.380;2022-12-13T03:24:51;279.57;;;101.43;;
18806;SDS011;9531;52.030;4.380;2022-12-13T03:27:18;235.90;;;94.03;;
18806;SDS011;9531;52.030;4.380;2022-12-13T03:29:46;213.43;;;90.70;;
18806;SDS011;9531;52.030;4.380;2022-12-13T03:32:13;216.30;;;90.40;;
18806;SDS011;9531;52.030;4.380;2022-12-13T03:34:42;224.20;;;92.37;;
18806;SDS011;9531;52.030;4.380;2022-12-13T03:37:09;220.10;;;91.90;;
18806;SDS011;9531;52.030;4.380;2022-12-13T03:39:36;216.40;;;90.10;;
18806;SDS011;9531;52.030;4.380;2022-12-13T03:42:03;223.83;;;90.57;;
18806;SDS011;9531;52.030;4.380;2022-12-13T03:44:30;216.83;;;90.83;;
18806;SDS011;9531;52.030;4.380;2022-12-13T03:46:58;238.83;;;94.00;;
18806;SDS011;9531;52.030;4.380;2022-12-13T03:49:25;234.53;;;94.20;;
18806;SDS011;9531;52.030;4.380;2022-12-13T03:51:54;247.13;;;96.17;;
18806;SDS011;9531;52.030;4.380;2022-12-13T03:54:21;262.70;;;96.03;;
18806;SDS011;9531;52.030;4.380;2022-12-13T03:56:48;231.47;;;92.97;;
18806;SDS011;9531;52.030;4.380;2022-12-13T03:59:16;217.67;;;96.47;;
18806;SDS011;9531;52.030;4.380;2022-12-13T04:01:46;251.50;;;96.33;;
18806;SDS011;9531;52.030;4.380;2022-12-13T04:04:13;275.23;;;100.77;;
18806;SDS011;9531;52.030;4.380;2022-12-13T04:06:40;234.07;;;91.50;;
18806;SDS011;9531;52.030;4.380;2022-12-13T04:09:09;261.90;;;97.40;;
18806;SDS011;9531;52.030;4.380;2022-12-13T04:11:36;227.43;;;93.90;;
18806;SDS011;9531;52.030;4.380;2022-12-13T04:14:21;225.60;;;91.37;;
18806;SDS011;9531;52.030;4.380;2022-12-13T04:16:49;237.97;;;94.03;;
18806;SDS011;9531;52.030;4.380;2022-12-13T04:19:16;247.83;;;94.40;;
18806;SDS011;9531;52.030;4.380;2022-12-13T04:21:44;237.93;;;89.77;;
18806;SDS011;9531;52.030;4.380;2022-12-13T04:24:12;239.07;;;90.87;;
18806;SDS011;9531;52.030;4.380;2022-12-13T04:26:41;270.10;;;96.87;;
18806;SDS011;9531;52.030;4.380;2022-12-13T04:29:08;263.47;;;100.20;;
18806;SDS011;9531;52.030;4.380;2022-12-13T04:31:38;246.70;;;96.07;;
18806;SDS011;9531;52.030;4.380;2022-12-13T04:34:06;211.00;;;85.43;;
18806;SDS011;9531;52.030;4.380;2022-12-13T04:36:33;218.70;;;85.63;;
18806;SDS011;9531;52.030;4.380;2022-12-13T04:39:01;273.13;;;98.43;;
18806;SDS011;9531;52.030;4.380;2022-12-13T04:41:35;288.87;;;103.83;;
18806;SDS011;9531;52.030;4.380;2022-12-13T04:44:04;228.37;;;92.27;;
18806;SDS011;9531;52.030;4.380;2022-12-13T04:46:32;209.63;;;85.87;;
18806;SDS011;9531;52.030;4.380;2022-12-13T04:49:00;302.87;;;110.40;;
18806;SDS011;9531;52.030;4.380;2022-12-13T04:51:27;407.33;;;122.10;;
18806;SDS011;9531;52.030;4.380;2022-12-13T04:53:55;369.37;;;125.17;;
18806;SDS011;9531;52.030;4.380;2022-12-13T04:56:23;387.47;;;123.90;;
18806;SDS011;9531;52.030;4.380;2022-12-13T04:58:52;353.43;;;118.83;;
18806;SDS011;9531;52.030;4.380;2022-12-13T05:01:20;379.13;;;117.73;;
18806;SDS011;9531;52.030;4.380;2022-12-13T05:03:47;395.17;;;118.83;;
18806;SDS011;9531;52.030;4.380;2022-12-13T05:08:46;393.90;;;131.17;;
18806;SDS011;9531;52.030;4.380;2022-12-13T05:11:14;385.50;;;117.17;;
18806;SDS011;9531;52.030;4.380;2022-12-13T05:13:41;362.67;;;108.23;;
18806;SDS011;9531;52.030;4.380;2022-12-13T05:16:10;389.93;;;135.70;;
18806;SDS011;9531;52.030;4.380;2022-12-13T05:18:37;380.03;;;119.63;;
18806;SDS011;9531;52.030;4.380;2022-12-13T05:21:06;198.20;;;84.47;;
18806;SDS011;9531;52.030;4.380;2022-12-13T05:23:37;194.17;;;96.80;;
18806;SDS011;9531;52.030;4.380;2022-12-13T05:26:11;202.27;;;106.10;;
18806;SDS011;9531;52.030;4.380;2022-12-13T05:28:38;189.50;;;80.17;;
18806;SDS011;9531;52.030;4.380;2022-12-13T05:31:06;192.77;;;91.87;;
18806;SDS011;9531;52.030;4.380;2022-12-13T05:33:42;208.20;;;90.63;;
18806;SDS011;9531;52.030;4.380;2022-12-13T05:36:09;201.97;;;88.27;;
18806;SDS011;9531;52.030;4.380;2022-12-13T05:38:38;312.77;;;107.87;;
18806;SDS011;9531;52.030;4.380;2022-12-13T05:41:05;366.20;;;113.17;;
18806;SDS011;9531;52.030;4.380;2022-12-13T05:43:35;182.37;;;77.17;;
18806;SDS011;9531;52.030;4.380;2022-12-13T05:46:02;190.73;;;91.47;;
18806;SDS011;9531;52.030;4.380;2022-12-13T05:48:31;188.23;;;86.57;;
18806;SDS011;9531;52.030;4.380;2022-12-13T05:51:00;178.07;;;80.37;;
18806;SDS011;9531;52.030;4.380;2022-12-13T05:53:27;185.77;;;87.27;;
18806;SDS011;9531;52.030;4.380;2022-12-13T05:55:57;183.83;;;79.93;;
18806;SDS011;9531;52.030;4.380;2022-12-13T05:58:25;171.17;;;82.07;;
18806;SDS011;9531;52.030;4.380;2022-12-13T06:00:52;186.17;;;83.70;;
18806;SDS011;9531;52.030;4.380;2022-12-13T06:03:20;161.83;;;75.37;;
18806;SDS011;9531;52.030;4.380;2022-12-13T06:05:47;169.50;;;83.10;;
18806;SDS011;9531;52.030;4.380;2022-12-13T06:08:16;172.17;;;80.43;;
18806;SDS011;9531;52.030;4.380;2022-12-13T06:10:44;155.57;;;71.43;;
18806;SDS011;9531;52.030;4.380;2022-12-13T06:13:18;152.60;;;64.10;;
18806;SDS011;9531;52.030;4.380;2022-12-13T06:15:46;165.83;;;80.87;;
18806;SDS011;9531;52.030;4.380;2022-12-13T06:18:14;157.53;;;74.47;;
18806;SDS011;9531;52.030;4.380;2022-12-13T06:20:43;133.27;;;74.67;;
18806;SDS011;9531;52.030;4.380;2022-12-13T06:23:12;156.13;;;79.30;;
18806;SDS011;9531;52.030;4.380;2022-12-13T06:25:42;152.07;;;72.43;;
18806;SDS011;9531;52.030;4.380;2022-12-13T06:28:10;153.63;;;66.93;;
18806;SDS011;9531;52.030;4.380;2022-12-13T06:30:43;158.97;;;79.20;;
18806;SDS011;9531;52.030;4.380;2022-12-13T06:33:11;156.20;;;77.67;;
18806;SDS011;9531;52.030;4.380;2022-12-13T06:35:38;153.27;;;83.97;;
18806;SDS011;9531;52.030;4.380;2022-12-13T06:38:06;148.40;;;82.93;;
18806;SDS011;9531;52.030;4.380;2022-12-13T06:40:33;153.37;;;75.27;;
18806;SDS011;9531;52.030;4.380;2022-12-13T06:43:02;160.23;;;88.63;;
18806;SDS011;9531;52.030;4.380;2022-12-13T06:45:30;174.73;;;90.87;;
18806;SDS011;9531;52.030;4.380;2022-12-13T06:47:59;157.10;;;84.63;;
18806;SDS011;9531;52.030;4.380;2022-12-13T06:50:26;161.63;;;90.67;;
18806;SDS011;9531;52.030;4.380;2022-12-13T06:52:54;163.03;;;82.57;;
18806;SDS011;9531;52.030;4.380;2022-12-13T06:55:22;170.67;;;84.83;;
18806;SDS011;9531;52.030;4.380;2022-12-13T06:57:50;181.03;;;92.17;;
18806;SDS011;9531;52.030;4.380;2022-12-13T07:00:19;163.73;;;86.50;;
18806;SDS011;9531;52.030;4.380;2022-12-13T07:02:50;180.80;;;92.60;;
18806;SDS011;9531;52.030;4.380;2022-12-13T07:05:19;163.43;;;87.40;;
18806;SDS011;9531;52.030;4.380;2022-12-13T07:07:46;169.90;;;88.10;;
18806;SDS011;9531;52.030;4.380;2022-12-13T07:10:14;162.90;;;90.87;;
18806;SDS011;9531;52.030;4.380;2022-12-13T07:12:41;168.10;;;81.50;;
18806;SDS011;9531;52.030;4.380;2022-12-13T07:15:17;156.27;;;75.50;;
18806;SDS011;9531;52.030;4.380;2022-12-13T07:17:45;164.53;;;80.10;;
18806;SDS011;9531;52.030;4.380;2022-12-13T07:20:21;162.33;;;75.83;;
18806;SDS011;9531;52.030;4.380;2022-12-13T07:22:48;167.83;;;76.53;;
18806;SDS011;9531;52.030;4.380;2022-12-13T07:25:20;161.03;;;65.20;;
18806;SDS011;9531;52.030;4.380;2022-12-13T07:27:54;152.20;;;62.03;;
18806;SDS011;9531;52.030;4.380;2022-12-13T07:30:25;162.47;;;61.60;;
18806;SDS011;9531;52.030;4.380;2022-12-13T07:32:54;170.50;;;79.27;;
18806;SDS011;9531;52.030;4.380;2022-12-13T07:35:22;170.67;;;82.67;;
18806;SDS011;9531;52.030;4.380;2022-12-13T07:37:49;169.83;;;83.10;;
18806;SDS011;9531;52.030;4.380;2022-12-13T07:40:18;178.73;;;82.83;;
18806;SDS011;9531;52.030;4.380;2022-12-13T07:42:48;173.00;;;78.50;;
18806;SDS011;9531;52.030;4.380;2022-12-13T07:45:16;174.87;;;81.33;;
18806;SDS011;9531;52.030;4.380;2022-12-13T07:47:43;179.53;;;88.33;;
18806;SDS011;9531;52.030;4.380;2022-12-13T07:50:12;180.87;;;87.97;;
18806;SDS011;9531;52.030;4.380;2022-12-13T07:52:42;186.87;;;82.33;;
18806;SDS011;9531;52.030;4.380;2022-12-13T07:55:10;197.70;;;90.87;;
18806;SDS011;9531;52.030;4.380;2022-12-13T07:57:39;204.83;;;91.87;;
18806;SDS011;9531;52.030;4.380;2022-12-13T08:00:07;240.20;;;98.47;;
18806;SDS011;9531;52.030;4.380;2022-12-13T08:02:35;355.03;;;112.63;;
18806;SDS011;9531;52.030;4.380;2022-12-13T08:05:03;345.70;;;114.90;;
18806;SDS011;9531;52.030;4.380;2022-12-13T08:07:32;346.13;;;115.37;;
18806;SDS011;9531;52.030;4.380;2022-12-13T08:10:00;300.57;;;106.83;;
18806;SDS011;9531;52.030;4.380;2022-12-13T08:12:28;344.67;;;117.30;;
18806;SDS011;9531;52.030;4.380;2022-12-13T08:14:57;319.03;;;106.63;;
18806;SDS011;9531;52.030;4.380;2022-12-13T08:17:24;345.67;;;113.47;;
18806;SDS011;9531;52.030;4.380;2022-12-13T08:19:52;354.17;;;122.13;;
18806;SDS011;9531;52.030;4.380;2022-12-13T08:22:21;350.37;;;124.10;;
18806;SDS011;9531;52.030;4.380;2022-12-13T08:24:50;293.77;;;97.00;;
18806;SDS011;9531;52.030;4.380;2022-12-13T08:27:18;361.93;;;110.90;;
18806;SDS011;9531;52.030;4.380;2022-12-13T08:29:47;305.77;;;99.53;;
18806;SDS011;9531;52.030;4.380;2022-12-13T08:32:14;362.50;;;105.37;;
18806;SDS011;9531;52.030;4.380;2022-12-13T08:34:42;335.97;;;105.10;;
18806;SDS011;9531;52.030;4.380;2022-12-13T08:37:10;362.13;;;110.60;;
18806;SDS011;9531;52.030;4.380;2022-12-13T08:39:38;342.50;;;107.30;;
18806;SDS011;9531;52.030;4.380;2022-12-13T08:42:09;337.37;;;109.17;;
18806;SDS011;9531;52.030;4.380;2022-12-13T08:44:39;339.43;;;108.67;;
18806;SDS011;9531;52.030;4.380;2022-12-13T08:47:06;321.33;;;110.07;;
18806;SDS011;9531;52.030;4.380;2022-12-13T08:49:33;352.00;;;113.70;;
18806;SDS011;9531;52.030;4.380;2022-12-13T08:52:01;362.07;;;115.37;;
18806;SDS011;9531;52.030;4.380;2022-12-13T08:54:31;352.20;;;110.90;;
18806;SDS011;9531;52.030;4.380;2022-12-13T08:57:11;350.00;;;113.23;;
18806;SDS011;9531;52.030;4.380;2022-12-13T08:59:38;345.53;;;108.40;;
18806;SDS011;9531;52.030;4.380;2022-12-13T09:02:07;361.53;;;113.07;;
18806;SDS011;9531;52.030;4.380;2022-12-13T09:04:37;367.37;;;108.90;;
18806;SDS011;9531;52.030;4.380;2022-12-13T09:07:04;364.47;;;110.77;;
18806;SDS011;9531;52.030;4.380;2022-12-13T09:09:32;380.80;;;114.00;;
18806;SDS011;9531;52.030;4.380;2022-12-13T09:12:01;389.20;;;115.63;;
18806;SDS011;9531;52.030;4.380;2022-12-13T09:14:32;367.47;;;119.10;;
18806;SDS011;9531;52.030;4.380;2022-12-13T09:16:59;438.20;;;130.50;;
18806;SDS011;9531;52.030;4.380;2022-12-13T09:19:34;404.40;;;125.97;;
18806;SDS011;9531;52.030;4.380;2022-12-13T09:22:03;403.83;;;119.23;;
18806;SDS011;9531;52.030;4.380;2022-12-13T09:24:30;395.17;;;120.77;;
18806;SDS011;9531;52.030;4.380;2022-12-13T09:26:59;386.03;;;124.13;;
18806;SDS011;9531;52.030;4.380;2022-12-13T09:29:26;337.53;;;114.27;;
18806;SDS011;9531;52.030;4.380;2022-12-13T09:32:00;349.80;;;108.23;;
18806;SDS011;9531;52.030;4.380;2022-12-13T09:34:27;384.80;;;113.47;;
18806;SDS011;9531;52.030;4.380;2022-12-13T09:36:55;358.00;;;109.77;;
18806;SDS011;9531;52.030;4.380;2022-12-13T09:39:25;403.20;;;125.07;;
18806;SDS011;9531;52.030;4.380;2022-12-13T09:41:53;371.83;;;114.63;;
18806;SDS011;9531;52.030;4.380;2022-12-13T09:44:23;384.20;;;119.17;;
18806;SDS011;9531;52.030;4.380;2022-12-13T09:46:53;410.87;;;126.30;;
18806;SDS011;9531;52.030;4.380;2022-12-13T09:49:26;281.10;;;110.27;;
18806;SDS011;9531;52.030;4.380;2022-12-13T09:51:56;404.10;;;128.13;;
18806;SDS011;9531;52.030;4.380;2022-12-13T09:54:25;384.80;;;132.07;;
18806;SDS011;9531;52.030;4.380;2022-12-13T09:56:54;410.70;;;132.50;;
18806;SDS011;9531;52.030;4.380;2022-12-13T09:59:23;402.63;;;129.17;;
18806;SDS011;9531;52.030;4.380;2022-12-13T10:02:01;412.20;;;128.17;;
18806;SDS011;9531;52.030;4.380;2022-12-13T10:04:41;411.70;;;128.03;;
18806;SDS011;9531;52.030;4.380;2022-12-13T10:07:09;401.17;;;130.23;;
18806;SDS011;9531;52.030;4.380;2022-12-13T10:09:42;413.53;;;125.87;;
18806;SDS011;9531;52.030;4.380;2022-12-13T10:12:10;406.57;;;135.43;;
18806;SDS011;9531;52.030;4.380;2022-12-13T10:14:42;418.67;;;140.90;;
18806;SDS011;9531;52.030;4.380;2022-12-13T10:17:14;430.90;;;153.87;;
18806;SDS011;9531;52.030;4.380;2022-12-13T10:19:46;430.27;;;169.73;;
18806;SDS011;9531;52.030;4.380;2022-12-13T10:22:16;401.97;;;155.90;;
18806;SDS011;9531;52.030;4.380;2022-12-13T10:24:54;407.60;;;159.90;;
18806;SDS011;9531;52.030;4.380;2022-12-13T10:27:25;404.37;;;152.13;;
18806;SDS011;9531;52.030;4.380;2022-12-13T10:30:05;437.07;;;157.10;;
18806;SDS011;9531;52.030;4.380;2022-12-13T10:32:49;430.10;;;158.37;;
18806;SDS011;9531;52.030;4.380;2022-12-13T10:35:22;259.17;;;128.47;;
18806;SDS011;9531;52.030;4.380;2022-12-13T10:37:51;256.67;;;126.23;;
18806;SDS011;9531;52.030;4.380;2022-12-13T10:40:22;266.83;;;130.57;;
18806;SDS011;9531;52.030;4.380;2022-12-13T10:43:04;272.83;;;134.43;;
18806;SDS011;9531;52.030;4.380;2022-12-13T10:45:32;265.17;;;133.07;;
18806;SDS011;9531;52.030;4.380;2022-12-13T10:47:59;265.40;;;110.57;;
18806;SDS011;9531;52.030;4.380;2022-12-13T10:50:30;258.97;;;121.77;;
18806;SDS011;9531;52.030;4.380;2022-12-13T10:52:58;272.20;;;125.10;;
18806;SDS011;9531;52.030;4.380;2022-12-13T10:55:27;286.47;;;128.33;;
18806;SDS011;9531;52.030;4.380;2022-12-13T10:57:56;286.40;;;126.23;;
18806;SDS011;9531;52.030;4.380;2022-12-13T11:00:30;276.67;;;115.33;;
18806;SDS011;9531;52.030;4.380;2022-12-13T11:03:00;286.53;;;117.00;;
18806;SDS011;9531;52.030;4.380;2022-12-13T11:05:30;309.07;;;124.63;;
18806;SDS011;9531;52.030;4.380;2022-12-13T11:08:10;348.67;;;132.53;;
18806;SDS011;9531;52.030;4.380;2022-12-13T11:10:40;269.50;;;123.63;;
18806;SDS011;9531;52.030;4.380;2022-12-13T11:13:08;289.63;;;126.90;;
18806;SDS011;9531;52.030;4.380;2022-12-13T11:15:50;308.43;;;129.07;;
18806;SDS011;9531;52.030;4.380;2022-12-13T11:18:21;297.70;;;123.33;;
18806;SDS011;9531;52.030;4.380;2022-12-13T11:20:54;319.87;;;125.70;;
18806;SDS011;9531;52.030;4.380;2022-12-13T11:23:27;315.37;;;133.10;;
18806;SDS011;9531;52.030;4.380;2022-12-13T11:25:59;324.17;;;138.27;;
18806;SDS011;9531;52.030;4.380;2022-12-13T11:28:37;309.97;;;128.27;;
18806;SDS011;9531;52.030;4.380;2022-12-13T11:31:25;295.03;;;128.53;;
18806;SDS011;9531;52.030;4.380;2022-12-13T11:34:02;312.53;;;133.83;;
18806;SDS011;9531;52.030;4.380;2022-12-13T11:36:40;309.47;;;136.53;;
18806;SDS011;9531;52.030;4.380;2022-12-13T11:39:15;326.37;;;140.90;;
18806;SDS011;9531;52.030;4.380;2022-12-13T11:41:48;337.90;;;145.37;;
18806;SDS011;9531;52.030;4.380;2022-12-13T11:44:22;311.93;;;138.40;;
18806;SDS011;9531;52.030;4.380;2022-12-13T11:46:53;308.30;;;135.50;;
18806;SDS011;9531;52.030;4.380;2022-12-13T11:49:27;291.40;;;127.00;;
18806;SDS011;9531;52.030;4.380;2022-12-13T11:52:03;295.53;;;137.83;;
18806;SDS011;9531;52.030;4.380;2022-12-13T11:54:37;295.33;;;136.27;;
18806;SDS011;9531;52.030;4.380;2022-12-13T11:57:12;286.13;;;132.43;;
18806;SDS011;9531;52.030;4.380;2022-12-13T11:59:54;297.10;;;137.97;;
18806;SDS011;9531;52.030;4.380;2022-12-13T12:02:25;300.07;;;141.33;;
18806;SDS011;9531;52.030;4.380;2022-12-13T12:04:56;275.13;;;115.07;;
18806;SDS011;9531;52.030;4.380;2022-12-13T12:07:29;363.43;;;124.70;;
18806;SDS011;9531;52.030;4.380;2022-12-13T12:10:03;340.07;;;115.90;;
18806;SDS011;9531;52.030;4.380;2022-12-13T12:12:44;336.70;;;122.77;;
18806;SDS011;9531;52.030;4.380;2022-12-13T12:15:23;359.07;;;140.00;;
18806;SDS011;9531;52.030;4.380;2022-12-13T12:17:55;336.60;;;144.83;;
18806;SDS011;9531;52.030;4.380;2022-12-13T12:20:25;294.20;;;132.00;;
18806;SDS011;9531;52.030;4.380;2022-12-13T12:23:07;308.70;;;143.43;;
18806;SDS011;9531;52.030;4.380;2022-12-13T12:25:45;322.67;;;139.93;;
18806;SDS011;9531;52.030;4.380;2022-12-13T12:28:20;309.27;;;129.13;;
18806;SDS011;9531;52.030;4.380;2022-12-13T12:31:00;308.00;;;131.67;;
18806;SDS011;9531;52.030;4.380;2022-12-13T12:33:35;321.27;;;134.60;;
18806;SDS011;9531;52.030;4.380;2022-12-13T12:36:14;307.40;;;127.07;;
18806;SDS011;9531;52.030;4.380;2022-12-13T12:38:57;307.30;;;128.53;;
18806;SDS011;9531;52.030;4.380;2022-12-13T12:42:15;297.57;;;127.03;;
18806;SDS011;9531;52.030;4.380;2022-12-13T12:44:56;295.00;;;114.33;;
18806;SDS011;9531;52.030;4.380;2022-12-13T12:47:33;306.23;;;123.73;;
18806;SDS011;9531;52.030;4.380;2022-12-13T12:50:13;283.80;;;118.20;;
18806;SDS011;9531;52.030;4.380;2022-12-13T12:53:05;296.17;;;121.07;;
18806;SDS011;9531;52.030;4.380;2022-12-13T12:55:46;286.80;;;114.23;;
18806;SDS011;9531;52.030;4.380;2022-12-13T12:58:23;285.93;;;107.00;;
18806;SDS011;9531;52.030;4.380;2022-12-13T13:01:06;306.40;;;135.83;;
18806;SDS011;9531;52.030;4.380;2022-12-13T13:03:43;304.03;;;136.23;;
18806;SDS011;9531;52.030;4.380;2022-12-13T13:06:11;307.20;;;137.73;;
18806;SDS011;9531;52.030;4.380;2022-12-13T13:08:43;305.80;;;138.57;;
18806;SDS011;9531;52.030;4.380;2022-12-13T13:11:16;304.83;;;133.97;;
18806;SDS011;9531;52.030;4.380;2022-12-13T13:13:45;306.53;;;132.53;;
18806;SDS011;9531;52.030;4.380;2022-12-13T13:19:04;301.27;;;135.10;;
18806;SDS011;9531;52.030;4.380;2022-12-13T13:21:45;275.87;;;125.37;;
18806;SDS011;9531;52.030;4.380;2022-12-13T13:24:23;293.17;;;130.17;;
18806;SDS011;9531;52.030;4.380;2022-12-13T13:26:54;288.10;;;126.23;;
18806;SDS011;9531;52.030;4.380;2022-12-13T13:29:29;290.73;;;124.50;;
18806;SDS011;9531;52.030;4.380;2022-12-13T13:32:04;290.53;;;127.40;;
18806;SDS011;9531;52.030;4.380;2022-12-13T13:34:49;287.77;;;128.00;;
18806;SDS011;9531;52.030;4.380;2022-12-13T13:37:28;281.90;;;127.77;;
18806;SDS011;9531;52.030;4.380;2022-12-13T13:43:11;295.53;;;121.97;;
18806;SDS011;9531;52.030;4.380;2022-12-13T13:45:57;299.13;;;130.27;;
18806;SDS011;9531;52.030;4.380;2022-12-13T13:48:37;270.73;;;121.53;;
18806;SDS011;9531;52.030;4.380;2022-12-13T13:54:25;264.00;;;116.13;;
18806;SDS011;9531;52.030;4.380;2022-12-13T13:57:19;252.13;;;114.47;;
18806;SDS011;9531;52.030;4.380;2022-12-13T14:00:13;244.93;;;109.17;;
18806;SDS011;9531;52.030;4.380;2022-12-13T14:06:03;240.43;;;116.80;;
18806;SDS011;9531;52.030;4.380;2022-12-13T14:18:43;258.07;;;114.87;;
18806;SDS011;9531;52.030;4.380;2022-12-13T14:21:36;257.00;;;116.17;;
18806;SDS011;9531;52.030;4.380;2022-12-13T14:24:13;264.27;;;113.83;;
18806;SDS011;9531;52.030;4.380;2022-12-13T14:26:56;259.30;;;107.17;;
18806;SDS011;9531;52.030;4.380;2022-12-13T14:29:41;239.80;;;104.93;;
18806;SDS011;9531;52.030;4.380;2022-12-13T14:32:17;261.43;;;120.77;;
18806;SDS011;9531;52.030;4.380;2022-12-13T14:34:50;251.33;;;120.93;;
18806;SDS011;9531;52.030;4.380;2022-12-13T14:37:20;257.53;;;122.77;;
18806;SDS011;9531;52.030;4.380;2022-12-13T14:39:52;256.07;;;113.17;;
18806;SDS011;9531;52.030;4.380;2022-12-13T14:42:20;257.80;;;119.93;;
18806;SDS011;9531;52.030;4.380;2022-12-13T14:44:49;269.30;;;116.37;;
18806;SDS011;9531;52.030;4.380;2022-12-13T14:47:19;274.60;;;128.57;;
18806;SDS011;9531;52.030;4.380;2022-12-13T14:49:48;269.23;;;126.43;;
18806;SDS011;9531;52.030;4.380;2022-12-13T14:52:32;260.57;;;121.20;;
18806;SDS011;9531;52.030;4.380;2022-12-13T14:55:04;289.40;;;131.33;;
18806;SDS011;9531;52.030;4.380;2022-12-13T14:57:34;277.73;;;133.13;;
18806;SDS011;9531;52.030;4.380;2022-12-13T15:02:50;252.83;;;113.17;;
18806;SDS011;9531;52.030;4.380;2022-12-13T15:05:22;263.13;;;130.43;;
18806;SDS011;9531;52.030;4.380;2022-12-13T15:07:51;275.83;;;127.17;;
18806;SDS011;9531;52.030;4.380;2022-12-13T15:10:27;287.60;;;131.50;;
18806;SDS011;9531;52.030;4.380;2022-12-13T15:15:29;300.53;;;129.10;;